sensor_id;sensor_type;location;lat;lon;timestamp;P1;durP1;ratioP1;P2;durP2;ratioP2
68858;SDS011;55864;49.238;8.092;2023-07-08T00:00:25;14.05;;;6.03;;
68858;SDS011;55864;49.238;8.092;2023-07-08T00:02:26;12.73;;;6.13;;
68858;SDS011;55864;49.238;8.092;2023-07-08T00:04:27;12.10;;;6.00;;
68858;SDS011;55864;49.238;8.092;2023-07-08T00:06:27;12.68;;;5.97;;
68858;SDS011;55864;49.238;8.092;2023-07-08T00:08:28;11.80;;;5.97;;
68858;SDS011;55864;49.238;8.092;2023-07-08T00:10:29;14.65;;;5.80;;
68858;SDS011;55864;49.238;8.092;2023-07-08T00:12:29;12.25;;;5.78;;
68858;SDS011;55864;49.238;8.092;2023-07-08T00:14:31;14.02;;;6.38;;
68858;SDS011;55864;49.238;8.092;2023-07-08T00:16:32;11.63;;;5.60;;
68858;SDS011;55864;49.238;8.092;2023-07-08T00:18:32;13.00;;;5.95;;
68858;SDS011;55864;49.238;8.092;2023-07-08T00:20:35;11.88;;;5.60;;
68858;SDS011;55864;49.238;8.092;2023-07-08T00:22:38;11.40;;;6.22;;
68858;SDS011;55864;49.238;8.092;2023-07-08T00:24:39;13.63;;;6.00;;
68858;SDS011;55864;49.238;8.092;2023-07-08T00:26:39;12.10;;;6.00;;
68858;SDS011;55864;49.238;8.092;2023-07-08T00:28:40;14.20;;;5.68;;
68858;SDS011;55864;49.238;8.092;2023-07-08T00:30:42;13.18;;;5.57;;
68858;SDS011;55864;49.238;8.092;2023-07-08T00:32:43;13.00;;;6.13;;
68858;SDS011;55864;49.238;8.092;2023-07-08T00:34:43;14.10;;;5.50;;
68858;SDS011;55864;49.238;8.092;2023-07-08T00:36:44;12.65;;;5.50;;
68858;SDS011;55864;49.238;8.092;2023-07-08T00:38:45;12.13;;;5.60;;
68858;SDS011;55864;49.238;8.092;2023-07-08T00:40:49;12.60;;;5.18;;
68858;SDS011;55864;49.238;8.092;2023-07-08T00:42:51;12.70;;;5.70;;
68858;SDS011;55864;49.238;8.092;2023-07-08T00:44:53;12.70;;;6.07;;
68858;SDS011;55864;49.238;8.092;2023-07-08T00:46:57;12.35;;;5.97;;
68858;SDS011;55864;49.238;8.092;2023-07-08T00:49:03;13.45;;;5.60;;
68858;SDS011;55864;49.238;8.092;2023-07-08T00:51:15;13.38;;;6.25;;
68858;SDS011;55864;49.238;8.092;2023-07-08T00:53:24;11.07;;;5.18;;
68858;SDS011;55864;49.238;8.092;2023-07-08T00:55:26;12.75;;;5.80;;
68858;SDS011;55864;49.238;8.092;2023-07-08T00:57:27;12.65;;;5.53;;
68858;SDS011;55864;49.238;8.092;2023-07-08T00:59:32;12.10;;;5.72;;
68858;SDS011;55864;49.238;8.092;2023-07-08T01:01:37;11.93;;;5.40;;
68858;SDS011;55864;49.238;8.092;2023-07-08T01:03:45;11.88;;;5.57;;
68858;SDS011;55864;49.238;8.092;2023-07-08T01:05:48;13.55;;;5.90;;
68858;SDS011;55864;49.238;8.092;2023-07-08T01:07:57;12.38;;;5.90;;
68858;SDS011;55864;49.238;8.092;2023-07-08T01:10:02;11.35;;;5.10;;
68858;SDS011;55864;49.238;8.092;2023-07-08T01:12:07;13.82;;;5.47;;
68858;SDS011;55864;49.238;8.092;2023-07-08T01:14:11;14.95;;;5.68;;
68858;SDS011;55864;49.238;8.092;2023-07-08T01:16:14;11.48;;;5.68;;
68858;SDS011;55864;49.238;8.092;2023-07-08T01:18:15;12.98;;;5.32;;
68858;SDS011;55864;49.238;8.092;2023-07-08T01:22:21;13.05;;;6.05;;
68858;SDS011;55864;49.238;8.092;2023-07-08T01:24:21;11.45;;;5.53;;
68858;SDS011;55864;49.238;8.092;2023-07-08T01:26:22;13.63;;;5.68;;
68858;SDS011;55864;49.238;8.092;2023-07-08T01:28:24;12.13;;;5.77;;
68858;SDS011;55864;49.238;8.092;2023-07-08T01:30:25;12.18;;;5.82;;
68858;SDS011;55864;49.238;8.092;2023-07-08T01:32:26;12.10;;;5.80;;
68858;SDS011;55864;49.238;8.092;2023-07-08T01:34:28;12.75;;;5.63;;
68858;SDS011;55864;49.238;8.092;2023-07-08T01:36:29;10.60;;;4.97;;
68858;SDS011;55864;49.238;8.092;2023-07-08T01:38:34;10.95;;;5.65;;
68858;SDS011;55864;49.238;8.092;2023-07-08T01:40:36;12.63;;;5.47;;
68858;SDS011;55864;49.238;8.092;2023-07-08T01:42:37;14.55;;;5.88;;
68858;SDS011;55864;49.238;8.092;2023-07-08T01:44:38;14.63;;;6.22;;
68858;SDS011;55864;49.238;8.092;2023-07-08T01:46:39;12.32;;;5.18;;
68858;SDS011;55864;49.238;8.092;2023-07-08T01:48:40;11.95;;;5.43;;
68858;SDS011;55864;49.238;8.092;2023-07-08T01:50:47;12.23;;;5.55;;
68858;SDS011;55864;49.238;8.092;2023-07-08T01:52:50;12.48;;;5.72;;
68858;SDS011;55864;49.238;8.092;2023-07-08T01:54:55;13.05;;;5.93;;
68858;SDS011;55864;49.238;8.092;2023-07-08T01:56:56;13.00;;;5.90;;
68858;SDS011;55864;49.238;8.092;2023-07-08T01:58:57;12.13;;;5.68;;
68858;SDS011;55864;49.238;8.092;2023-07-08T02:00:57;13.65;;;6.32;;
68858;SDS011;55864;49.238;8.092;2023-07-08T02:02:58;11.32;;;5.57;;
68858;SDS011;55864;49.238;8.092;2023-07-08T02:04:59;11.73;;;5.35;;
68858;SDS011;55864;49.238;8.092;2023-07-08T02:06:59;13.93;;;6.50;;
68858;SDS011;55864;49.238;8.092;2023-07-08T02:09:01;12.38;;;5.82;;
68858;SDS011;55864;49.238;8.092;2023-07-08T02:11:04;14.15;;;6.00;;
68858;SDS011;55864;49.238;8.092;2023-07-08T02:13:04;12.55;;;5.40;;
68858;SDS011;55864;49.238;8.092;2023-07-08T02:15:06;11.43;;;5.10;;
68858;SDS011;55864;49.238;8.092;2023-07-08T02:17:10;14.32;;;5.63;;
68858;SDS011;55864;49.238;8.092;2023-07-08T02:19:11;12.70;;;5.65;;
68858;SDS011;55864;49.238;8.092;2023-07-08T02:21:11;13.63;;;5.72;;
68858;SDS011;55864;49.238;8.092;2023-07-08T02:23:12;11.57;;;5.47;;
68858;SDS011;55864;49.238;8.092;2023-07-08T02:25:13;11.27;;;5.70;;
68858;SDS011;55864;49.238;8.092;2023-07-08T02:27:15;11.98;;;5.68;;
68858;SDS011;55864;49.238;8.092;2023-07-08T02:29:16;12.65;;;6.22;;
68858;SDS011;55864;49.238;8.092;2023-07-08T02:31:16;11.95;;;5.43;;
68858;SDS011;55864;49.238;8.092;2023-07-08T02:33:17;11.95;;;5.30;;
68858;SDS011;55864;49.238;8.092;2023-07-08T02:35:17;10.98;;;5.45;;
68858;SDS011;55864;49.238;8.092;2023-07-08T02:37:18;11.23;;;5.32;;
68858;SDS011;55864;49.238;8.092;2023-07-08T02:39:19;11.18;;;5.32;;
68858;SDS011;55864;49.238;8.092;2023-07-08T02:41:19;12.00;;;5.95;;
68858;SDS011;55864;49.238;8.092;2023-07-08T02:43:21;11.73;;;5.43;;
68858;SDS011;55864;49.238;8.092;2023-07-08T02:45:22;11.90;;;5.72;;
68858;SDS011;55864;49.238;8.092;2023-07-08T02:47:22;12.63;;;5.75;;
68858;SDS011;55864;49.238;8.092;2023-07-08T02:49:23;14.25;;;5.90;;
68858;SDS011;55864;49.238;8.092;2023-07-08T02:51:24;10.90;;;5.20;;
68858;SDS011;55864;49.238;8.092;2023-07-08T02:53:24;14.30;;;5.60;;
68858;SDS011;55864;49.238;8.092;2023-07-08T02:55:25;11.27;;;5.28;;
68858;SDS011;55864;49.238;8.092;2023-07-08T02:57:26;14.10;;;5.10;;
68858;SDS011;55864;49.238;8.092;2023-07-08T02:59:27;10.95;;;5.20;;
68858;SDS011;55864;49.238;8.092;2023-07-08T03:01:28;12.98;;;5.75;;
68858;SDS011;55864;49.238;8.092;2023-07-08T03:03:29;15.38;;;6.28;;
68858;SDS011;55864;49.238;8.092;2023-07-08T03:05:29;11.63;;;5.88;;
68858;SDS011;55864;49.238;8.092;2023-07-08T03:07:30;10.02;;;5.05;;
68858;SDS011;55864;49.238;8.092;2023-07-08T03:09:30;11.88;;;5.70;;
68858;SDS011;55864;49.238;8.092;2023-07-08T03:11:31;13.13;;;5.60;;
68858;SDS011;55864;49.238;8.092;2023-07-08T03:13:32;11.02;;;5.15;;
68858;SDS011;55864;49.238;8.092;2023-07-08T03:15:34;12.77;;;5.40;;
68858;SDS011;55864;49.238;8.092;2023-07-08T03:17:35;11.77;;;5.50;;
68858;SDS011;55864;49.238;8.092;2023-07-08T03:19:36;14.88;;;5.82;;
68858;SDS011;55864;49.238;8.092;2023-07-08T03:21:37;14.20;;;5.90;;
68858;SDS011;55864;49.238;8.092;2023-07-08T03:23:37;13.88;;;5.60;;
68858;SDS011;55864;49.238;8.092;2023-07-08T03:25:38;11.27;;;5.32;;
68858;SDS011;55864;49.238;8.092;2023-07-08T03:27:39;12.07;;;5.20;;
68858;SDS011;55864;49.238;8.092;2023-07-08T03:29:40;11.70;;;5.32;;
68858;SDS011;55864;49.238;8.092;2023-07-08T03:31:42;11.68;;;5.40;;
68858;SDS011;55864;49.238;8.092;2023-07-08T03:33:43;14.07;;;6.35;;
68858;SDS011;55864;49.238;8.092;2023-07-08T03:35:44;11.75;;;4.85;;
68858;SDS011;55864;49.238;8.092;2023-07-08T03:37:45;15.80;;;6.03;;
68858;SDS011;55864;49.238;8.092;2023-07-08T03:39:46;13.30;;;4.97;;
68858;SDS011;55864;49.238;8.092;2023-07-08T03:41:47;12.77;;;5.38;;
68858;SDS011;55864;49.238;8.092;2023-07-08T03:43:48;12.75;;;5.40;;
68858;SDS011;55864;49.238;8.092;2023-07-08T03:45:50;11.57;;;5.35;;
68858;SDS011;55864;49.238;8.092;2023-07-08T03:47:52;11.63;;;5.03;;
68858;SDS011;55864;49.238;8.092;2023-07-08T03:49:53;12.50;;;5.72;;
68858;SDS011;55864;49.238;8.092;2023-07-08T03:51:54;10.80;;;5.15;;
68858;SDS011;55864;49.238;8.092;2023-07-08T03:53:55;11.07;;;5.70;;
68858;SDS011;55864;49.238;8.092;2023-07-08T03:55:57;11.15;;;5.07;;
68858;SDS011;55864;49.238;8.092;2023-07-08T03:57:58;12.13;;;5.60;;
68858;SDS011;55864;49.238;8.092;2023-07-08T04:00:00;11.52;;;5.70;;
68858;SDS011;55864;49.238;8.092;2023-07-08T04:02:01;11.52;;;5.07;;
68858;SDS011;55864;49.238;8.092;2023-07-08T04:04:04;10.88;;;5.38;;
68858;SDS011;55864;49.238;8.092;2023-07-08T04:06:08;14.18;;;5.38;;
68858;SDS011;55864;49.238;8.092;2023-07-08T04:08:08;13.93;;;5.90;;
68858;SDS011;55864;49.238;8.092;2023-07-08T04:10:09;11.38;;;5.32;;
68858;SDS011;55864;49.238;8.092;2023-07-08T04:12:11;11.70;;;5.20;;
68858;SDS011;55864;49.238;8.092;2023-07-08T04:14:11;12.88;;;5.78;;
68858;SDS011;55864;49.238;8.092;2023-07-08T04:16:13;14.00;;;5.00;;
68858;SDS011;55864;49.238;8.092;2023-07-08T04:18:18;11.93;;;5.50;;
68858;SDS011;55864;49.238;8.092;2023-07-08T04:20:20;11.75;;;5.55;;
68858;SDS011;55864;49.238;8.092;2023-07-08T04:22:21;12.48;;;5.05;;
68858;SDS011;55864;49.238;8.092;2023-07-08T04:24:22;11.88;;;5.45;;
68858;SDS011;55864;49.238;8.092;2023-07-08T04:26:22;11.50;;;5.32;;
68858;SDS011;55864;49.238;8.092;2023-07-08T04:28:23;12.25;;;5.47;;
68858;SDS011;55864;49.238;8.092;2023-07-08T04:30:24;11.40;;;4.90;;
68858;SDS011;55864;49.238;8.092;2023-07-08T04:32:25;11.70;;;5.90;;
68858;SDS011;55864;49.238;8.092;2023-07-08T04:34:26;14.32;;;5.50;;
68858;SDS011;55864;49.238;8.092;2023-07-08T04:36:28;14.68;;;5.35;;
68858;SDS011;55864;49.238;8.092;2023-07-08T04:38:28;11.52;;;5.38;;
68858;SDS011;55864;49.238;8.092;2023-07-08T04:40:29;14.75;;;5.38;;
68858;SDS011;55864;49.238;8.092;2023-07-08T04:42:30;16.67;;;5.80;;
68858;SDS011;55864;49.238;8.092;2023-07-08T04:44:30;11.90;;;5.10;;
68858;SDS011;55864;49.238;8.092;2023-07-08T04:46:32;14.55;;;4.85;;
68858;SDS011;55864;49.238;8.092;2023-07-08T04:48:36;12.32;;;4.95;;
68858;SDS011;55864;49.238;8.092;2023-07-08T04:50:36;13.43;;;5.38;;
68858;SDS011;55864;49.238;8.092;2023-07-08T04:52:38;11.77;;;5.57;;
68858;SDS011;55864;49.238;8.092;2023-07-08T04:54:39;12.25;;;5.10;;
68858;SDS011;55864;49.238;8.092;2023-07-08T04:56:40;13.65;;;5.88;;
68858;SDS011;55864;49.238;8.092;2023-07-08T04:58:42;14.65;;;5.60;;
68858;SDS011;55864;49.238;8.092;2023-07-08T05:00:42;12.73;;;5.30;;
68858;SDS011;55864;49.238;8.092;2023-07-08T05:02:43;12.00;;;4.97;;
68858;SDS011;55864;49.238;8.092;2023-07-08T05:04:44;12.15;;;5.20;;
68858;SDS011;55864;49.238;8.092;2023-07-08T05:06:44;12.73;;;5.38;;
68858;SDS011;55864;49.238;8.092;2023-07-08T05:08:46;16.02;;;5.60;;
68858;SDS011;55864;49.238;8.092;2023-07-08T05:10:47;12.65;;;5.30;;
68858;SDS011;55864;49.238;8.092;2023-07-08T05:12:47;13.45;;;5.55;;
68858;SDS011;55864;49.238;8.092;2023-07-08T05:14:48;12.32;;;5.50;;
68858;SDS011;55864;49.238;8.092;2023-07-08T05:16:48;13.32;;;5.32;;
68858;SDS011;55864;49.238;8.092;2023-07-08T05:18:49;12.30;;;5.20;;
68858;SDS011;55864;49.238;8.092;2023-07-08T05:20:50;12.40;;;5.60;;
68858;SDS011;55864;49.238;8.092;2023-07-08T05:22:51;12.55;;;5.72;;
68858;SDS011;55864;49.238;8.092;2023-07-08T05:24:53;15.20;;;5.47;;
68858;SDS011;55864;49.238;8.092;2023-07-08T05:26:53;14.47;;;5.50;;
68858;SDS011;55864;49.238;8.092;2023-07-08T05:28:54;10.85;;;5.32;;
68858;SDS011;55864;49.238;8.092;2023-07-08T05:30:54;14.32;;;5.55;;
68858;SDS011;55864;49.238;8.092;2023-07-08T05:32:56;19.10;;;5.82;;
68858;SDS011;55864;49.238;8.092;2023-07-08T05:34:56;20.48;;;6.35;;
68858;SDS011;55864;49.238;8.092;2023-07-08T05:36:57;15.98;;;6.82;;
68858;SDS011;55864;49.238;8.092;2023-07-08T05:38:57;15.57;;;6.18;;
68858;SDS011;55864;49.238;8.092;2023-07-08T05:40:59;19.05;;;6.55;;
68858;SDS011;55864;49.238;8.092;2023-07-08T05:43:00;14.98;;;6.82;;
68858;SDS011;55864;49.238;8.092;2023-07-08T05:45:00;13.57;;;5.88;;
68858;SDS011;55864;49.238;8.092;2023-07-08T05:47:01;17.63;;;7.00;;
68858;SDS011;55864;49.238;8.092;2023-07-08T05:49:02;18.35;;;6.35;;
68858;SDS011;55864;49.238;8.092;2023-07-08T05:51:03;14.45;;;6.65;;
68858;SDS011;55864;49.238;8.092;2023-07-08T05:53:03;16.85;;;6.53;;
68858;SDS011;55864;49.238;8.092;2023-07-08T05:55:04;20.67;;;6.50;;
68858;SDS011;55864;49.238;8.092;2023-07-08T05:57:07;16.83;;;5.97;;
68858;SDS011;55864;49.238;8.092;2023-07-08T05:59:09;20.20;;;6.60;;
68858;SDS011;55864;49.238;8.092;2023-07-08T06:01:10;21.20;;;6.45;;
68858;SDS011;55864;49.238;8.092;2023-07-08T06:03:10;16.33;;;6.57;;
68858;SDS011;55864;49.238;8.092;2023-07-08T06:05:11;17.38;;;6.50;;
68858;SDS011;55864;49.238;8.092;2023-07-08T06:07:11;15.88;;;5.55;;
68858;SDS011;55864;49.238;8.092;2023-07-08T06:09:12;17.05;;;6.70;;
68858;SDS011;55864;49.238;8.092;2023-07-08T06:11:12;17.55;;;6.40;;
68858;SDS011;55864;49.238;8.092;2023-07-08T06:13:14;13.43;;;5.53;;
68858;SDS011;55864;49.238;8.092;2023-07-08T06:15:15;14.43;;;6.00;;
68858;SDS011;55864;49.238;8.092;2023-07-08T06:17:15;13.50;;;6.10;;
68858;SDS011;55864;49.238;8.092;2023-07-08T06:19:16;14.70;;;6.32;;
68858;SDS011;55864;49.238;8.092;2023-07-08T06:21:16;14.70;;;6.05;;
68858;SDS011;55864;49.238;8.092;2023-07-08T06:23:17;14.13;;;6.28;;
68858;SDS011;55864;49.238;8.092;2023-07-08T06:25:18;13.68;;;5.97;;
68858;SDS011;55864;49.238;8.092;2023-07-08T06:27:18;13.30;;;5.75;;
68858;SDS011;55864;49.238;8.092;2023-07-08T06:29:20;14.10;;;5.25;;
68858;SDS011;55864;49.238;8.092;2023-07-08T06:31:21;13.32;;;5.70;;
68858;SDS011;55864;49.238;8.092;2023-07-08T06:33:21;13.82;;;5.50;;
68858;SDS011;55864;49.238;8.092;2023-07-08T06:35:22;12.40;;;5.35;;
68858;SDS011;55864;49.238;8.092;2023-07-08T06:37:22;10.35;;;4.90;;
68858;SDS011;55864;49.238;8.092;2023-07-08T06:39:23;13.52;;;4.90;;
68858;SDS011;55864;49.238;8.092;2023-07-08T06:41:23;10.32;;;4.45;;
68858;SDS011;55864;49.238;8.092;2023-07-08T06:43:24;11.60;;;4.63;;
68858;SDS011;55864;49.238;8.092;2023-07-08T06:45:31;13.20;;;4.65;;
68858;SDS011;55864;49.238;8.092;2023-07-08T06:47:32;9.60;;;4.78;;
68858;SDS011;55864;49.238;8.092;2023-07-08T06:49:32;11.30;;;5.22;;
68858;SDS011;55864;49.238;8.092;2023-07-08T06:51:33;12.73;;;4.53;;
68858;SDS011;55864;49.238;8.092;2023-07-08T06:53:33;11.32;;;4.10;;
68858;SDS011;55864;49.238;8.092;2023-07-08T06:55:34;10.02;;;4.30;;
68858;SDS011;55864;49.238;8.092;2023-07-08T06:57:35;9.52;;;4.43;;
68858;SDS011;55864;49.238;8.092;2023-07-08T06:59:36;10.45;;;4.60;;
68858;SDS011;55864;49.238;8.092;2023-07-08T07:01:37;10.85;;;4.00;;
68858;SDS011;55864;49.238;8.092;2023-07-08T07:03:39;8.30;;;4.03;;
68858;SDS011;55864;49.238;8.092;2023-07-08T07:05:40;10.48;;;4.43;;
68858;SDS011;55864;49.238;8.092;2023-07-08T07:07:41;8.80;;;3.97;;
68858;SDS011;55864;49.238;8.092;2023-07-08T07:09:41;9.68;;;3.80;;
68858;SDS011;55864;49.238;8.092;2023-07-08T07:11:42;9.98;;;4.05;;
68858;SDS011;55864;49.238;8.092;2023-07-08T07:13:42;11.93;;;4.53;;
68858;SDS011;55864;49.238;8.092;2023-07-08T07:15:43;11.45;;;3.90;;
68858;SDS011;55864;49.238;8.092;2023-07-08T07:17:45;10.18;;;3.72;;
68858;SDS011;55864;49.238;8.092;2023-07-08T07:19:45;9.60;;;3.75;;
68858;SDS011;55864;49.238;8.092;2023-07-08T07:21:46;11.48;;;3.63;;
68858;SDS011;55864;49.238;8.092;2023-07-08T07:23:47;10.65;;;3.70;;
68858;SDS011;55864;49.238;8.092;2023-07-08T07:25:47;9.07;;;4.10;;
68858;SDS011;55864;49.238;8.092;2023-07-08T07:27:48;10.77;;;3.65;;
68858;SDS011;55864;49.238;8.092;2023-07-08T07:29:49;9.88;;;3.78;;
68858;SDS011;55864;49.238;8.092;2023-07-08T07:31:50;11.75;;;3.97;;
68858;SDS011;55864;49.238;8.092;2023-07-08T07:33:52;9.88;;;3.75;;
68858;SDS011;55864;49.238;8.092;2023-07-08T07:35:53;9.75;;;3.50;;
68858;SDS011;55864;49.238;8.092;2023-07-08T07:37:53;10.48;;;3.88;;
68858;SDS011;55864;49.238;8.092;2023-07-08T07:39:54;9.63;;;3.97;;
68858;SDS011;55864;49.238;8.092;2023-07-08T07:41:54;10.43;;;3.60;;
68858;SDS011;55864;49.238;8.092;2023-07-08T07:43:55;9.95;;;3.97;;
68858;SDS011;55864;49.238;8.092;2023-07-08T07:45:55;9.30;;;4.13;;
68858;SDS011;55864;49.238;8.092;2023-07-08T07:47:56;9.50;;;3.70;;
68858;SDS011;55864;49.238;8.092;2023-07-08T07:49:58;10.25;;;4.18;;
68858;SDS011;55864;49.238;8.092;2023-07-08T07:51:58;11.18;;;3.88;;
68858;SDS011;55864;49.238;8.092;2023-07-08T07:53:59;9.38;;;4.47;;
68858;SDS011;55864;49.238;8.092;2023-07-08T07:56:00;10.13;;;3.90;;
68858;SDS011;55864;49.238;8.092;2023-07-08T07:58:02;13.23;;;7.50;;
68858;SDS011;55864;49.238;8.092;2023-07-08T08:00:02;11.93;;;4.10;;
68858;SDS011;55864;49.238;8.092;2023-07-08T08:02:13;8.13;;;3.75;;
68858;SDS011;55864;49.238;8.092;2023-07-08T08:04:14;12.07;;;3.70;;
68858;SDS011;55864;49.238;8.092;2023-07-08T08:06:16;10.20;;;3.90;;
68858;SDS011;55864;49.238;8.092;2023-07-08T08:08:16;11.80;;;3.75;;
68858;SDS011;55864;49.238;8.092;2023-07-08T08:10:17;10.10;;;3.80;;
68858;SDS011;55864;49.238;8.092;2023-07-08T08:12:17;8.90;;;3.65;;
68858;SDS011;55864;49.238;8.092;2023-07-08T08:14:18;11.38;;;3.90;;
68858;SDS011;55864;49.238;8.092;2023-07-08T08:16:18;9.18;;;3.72;;
68858;SDS011;55864;49.238;8.092;2023-07-08T08:18:19;11.93;;;3.92;;
68858;SDS011;55864;49.238;8.092;2023-07-08T08:20:20;12.45;;;3.70;;
68858;SDS011;55864;49.238;8.092;2023-07-08T08:22:24;9.65;;;3.50;;
68858;SDS011;55864;49.238;8.092;2023-07-08T08:24:24;8.27;;;3.60;;
68858;SDS011;55864;49.238;8.092;2023-07-08T08:26:25;8.10;;;3.42;;
68858;SDS011;55864;49.238;8.092;2023-07-08T08:28:25;11.40;;;3.95;;
68858;SDS011;55864;49.238;8.092;2023-07-08T08:30:26;9.85;;;4.05;;
68858;SDS011;55864;49.238;8.092;2023-07-08T08:32:26;11.32;;;3.67;;
68858;SDS011;55864;49.238;8.092;2023-07-08T08:34:27;8.15;;;3.85;;
68858;SDS011;55864;49.238;8.092;2023-07-08T08:36:27;15.10;;;3.80;;
68858;SDS011;55864;49.238;8.092;2023-07-08T08:38:29;9.23;;;3.97;;
68858;SDS011;55864;49.238;8.092;2023-07-08T08:40:30;9.90;;;3.83;;
68858;SDS011;55864;49.238;8.092;2023-07-08T08:42:32;11.77;;;3.92;;
68858;SDS011;55864;49.238;8.092;2023-07-08T08:44:39;8.65;;;3.95;;
68858;SDS011;55864;49.238;8.092;2023-07-08T08:46:41;8.73;;;3.53;;
68858;SDS011;55864;49.238;8.092;2023-07-08T08:48:51;10.32;;;3.80;;
68858;SDS011;55864;49.238;8.092;2023-07-08T08:50:58;9.27;;;4.03;;
68858;SDS011;55864;49.238;8.092;2023-07-08T08:53:03;10.85;;;3.75;;
68858;SDS011;55864;49.238;8.092;2023-07-08T08:55:12;10.18;;;3.63;;
68858;SDS011;55864;49.238;8.092;2023-07-08T08:57:16;10.38;;;3.58;;
68858;SDS011;55864;49.238;8.092;2023-07-08T08:59:31;10.57;;;3.42;;
68858;SDS011;55864;49.238;8.092;2023-07-08T09:01:38;12.27;;;3.70;;
68858;SDS011;55864;49.238;8.092;2023-07-08T09:03:41;9.50;;;3.85;;
68858;SDS011;55864;49.238;8.092;2023-07-08T09:05:46;9.32;;;3.42;;
68858;SDS011;55864;49.238;8.092;2023-07-08T09:10:08;11.65;;;3.65;;
68858;SDS011;55864;49.238;8.092;2023-07-08T09:12:17;9.82;;;3.67;;
68858;SDS011;55864;49.238;8.092;2023-07-08T09:14:23;9.43;;;3.30;;
68858;SDS011;55864;49.238;8.092;2023-07-08T09:16:26;11.40;;;3.58;;
68858;SDS011;55864;49.238;8.092;2023-07-08T09:18:40;14.27;;;3.90;;
68858;SDS011;55864;49.238;8.092;2023-07-08T09:20:45;9.48;;;3.40;;
68858;SDS011;55864;49.238;8.092;2023-07-08T09:22:46;9.65;;;4.15;;
68858;SDS011;55864;49.238;8.092;2023-07-08T09:24:54;10.75;;;3.47;;
68858;SDS011;55864;49.238;8.092;2023-07-08T09:27:00;8.70;;;3.90;;
68858;SDS011;55864;49.238;8.092;2023-07-08T09:29:04;10.77;;;3.45;;
68858;SDS011;55864;49.238;8.092;2023-07-08T09:31:20;8.70;;;2.85;;
68858;SDS011;55864;49.238;8.092;2023-07-08T09:33:23;8.30;;;3.15;;
68858;SDS011;55864;49.238;8.092;2023-07-08T09:35:25;9.43;;;3.43;;
68858;SDS011;55864;49.238;8.092;2023-07-08T09:37:28;8.23;;;3.42;;
68858;SDS011;55864;49.238;8.092;2023-07-08T09:39:29;11.43;;;3.75;;
68858;SDS011;55864;49.238;8.092;2023-07-08T09:41:31;7.20;;;3.42;;
68858;SDS011;55864;49.238;8.092;2023-07-08T09:43:33;6.65;;;3.13;;
68858;SDS011;55864;49.238;8.092;2023-07-08T09:45:42;11.20;;;3.58;;
68858;SDS011;55864;49.238;8.092;2023-07-08T09:47:45;9.57;;;3.95;;
68858;SDS011;55864;49.238;8.092;2023-07-08T09:49:47;9.52;;;3.75;;
68858;SDS011;55864;49.238;8.092;2023-07-08T09:51:48;8.00;;;3.20;;
68858;SDS011;55864;49.238;8.092;2023-07-08T09:53:49;9.57;;;3.67;;
68858;SDS011;55864;49.238;8.092;2023-07-08T09:55:50;9.23;;;4.15;;
68858;SDS011;55864;49.238;8.092;2023-07-08T09:57:52;8.43;;;2.97;;
68858;SDS011;55864;49.238;8.092;2023-07-08T10:02:00;7.32;;;3.08;;
68858;SDS011;55864;49.238;8.092;2023-07-08T10:04:02;6.55;;;2.90;;
68858;SDS011;55864;49.238;8.092;2023-07-08T10:06:05;8.60;;;3.15;;
68858;SDS011;55864;49.238;8.092;2023-07-08T10:08:15;10.27;;;2.85;;
68858;SDS011;55864;49.238;8.092;2023-07-08T10:10:22;7.30;;;3.08;;
68858;SDS011;55864;49.238;8.092;2023-07-08T10:12:26;8.40;;;3.60;;
68858;SDS011;55864;49.238;8.092;2023-07-08T10:14:29;10.90;;;3.72;;
68858;SDS011;55864;49.238;8.092;2023-07-08T10:16:34;7.60;;;3.05;;
68858;SDS011;55864;49.238;8.092;2023-07-08T10:18:37;8.00;;;3.03;;
68858;SDS011;55864;49.238;8.092;2023-07-08T10:20:39;6.90;;;3.10;;
68858;SDS011;55864;49.238;8.092;2023-07-08T10:22:53;5.93;;;2.95;;
68858;SDS011;55864;49.238;8.092;2023-07-08T10:25:08;8.48;;;3.00;;
68858;SDS011;55864;49.238;8.092;2023-07-08T10:29:22;6.95;;;3.17;;
68858;SDS011;55864;49.238;8.092;2023-07-08T10:31:31;8.43;;;2.90;;
68858;SDS011;55864;49.238;8.092;2023-07-08T10:33:44;9.73;;;3.30;;
68858;SDS011;55864;49.238;8.092;2023-07-08T10:36:03;7.75;;;3.33;;
68858;SDS011;55864;49.238;8.092;2023-07-08T10:38:22;8.45;;;3.03;;
68858;SDS011;55864;49.238;8.092;2023-07-08T10:40:46;9.38;;;3.28;;
68858;SDS011;55864;49.238;8.092;2023-07-08T10:43:06;6.95;;;3.30;;
68858;SDS011;55864;49.238;8.092;2023-07-08T10:45:20;8.48;;;3.50;;
68858;SDS011;55864;49.238;8.092;2023-07-08T10:47:30;7.97;;;3.25;;
68858;SDS011;55864;49.238;8.092;2023-07-08T10:49:53;7.65;;;3.38;;
68858;SDS011;55864;49.238;8.092;2023-07-08T10:52:10;6.80;;;3.30;;
68858;SDS011;55864;49.238;8.092;2023-07-08T10:54:22;8.10;;;3.60;;
68858;SDS011;55864;49.238;8.092;2023-07-08T10:56:36;7.57;;;3.38;;
68858;SDS011;55864;49.238;8.092;2023-07-08T10:58:49;10.30;;;3.30;;
68858;SDS011;55864;49.238;8.092;2023-07-08T11:01:03;8.00;;;3.45;;
68858;SDS011;55864;49.238;8.092;2023-07-08T11:05:48;7.82;;;3.17;;
68858;SDS011;55864;49.238;8.092;2023-07-08T11:07:58;8.30;;;3.28;;
68858;SDS011;55864;49.238;8.092;2023-07-08T11:10:05;9.93;;;3.30;;
68858;SDS011;55864;49.238;8.092;2023-07-08T11:12:13;11.77;;;3.53;;
68858;SDS011;55864;49.238;8.092;2023-07-08T11:14:24;7.63;;;2.95;;
68858;SDS011;55864;49.238;8.092;2023-07-08T11:16:39;9.60;;;3.00;;
68858;SDS011;55864;49.238;8.092;2023-07-08T11:18:43;7.00;;;3.38;;
68858;SDS011;55864;49.238;8.092;2023-07-08T11:20:54;7.32;;;3.28;;
68858;SDS011;55864;49.238;8.092;2023-07-08T11:23:01;6.80;;;3.17;;
68858;SDS011;55864;49.238;8.092;2023-07-08T11:25:07;8.75;;;3.47;;
68858;SDS011;55864;49.238;8.092;2023-07-08T11:27:19;8.52;;;3.45;;
68858;SDS011;55864;49.238;8.092;2023-07-08T11:29:22;8.73;;;3.38;;
68858;SDS011;55864;49.238;8.092;2023-07-08T11:31:27;8.05;;;3.55;;
68858;SDS011;55864;49.238;8.092;2023-07-08T11:33:30;6.88;;;3.30;;
68858;SDS011;55864;49.238;8.092;2023-07-08T11:35:36;10.55;;;3.40;;
68858;SDS011;55864;49.238;8.092;2023-07-08T11:37:41;8.50;;;3.38;;
68858;SDS011;55864;49.238;8.092;2023-07-08T11:39:43;7.32;;;3.42;;
68858;SDS011;55864;49.238;8.092;2023-07-08T11:41:45;8.70;;;3.35;;
68858;SDS011;55864;49.238;8.092;2023-07-08T11:43:47;7.28;;;3.30;;
68858;SDS011;55864;49.238;8.092;2023-07-08T11:45:50;9.05;;;3.47;;
68858;SDS011;55864;49.238;8.092;2023-07-08T11:47:53;8.18;;;3.35;;
68858;SDS011;55864;49.238;8.092;2023-07-08T11:50:05;8.20;;;3.38;;
68858;SDS011;55864;49.238;8.092;2023-07-08T11:52:14;8.93;;;3.65;;
68858;SDS011;55864;49.238;8.092;2023-07-08T11:54:26;8.02;;;3.42;;
68858;SDS011;55864;49.238;8.092;2023-07-08T11:56:28;7.50;;;3.45;;
68858;SDS011;55864;49.238;8.092;2023-07-08T11:58:58;9.27;;;3.30;;
68858;SDS011;55864;49.238;8.092;2023-07-08T12:01:14;9.52;;;3.50;;
68858;SDS011;55864;49.238;8.092;2023-07-08T12:03:23;10.43;;;3.50;;
68858;SDS011;55864;49.238;8.092;2023-07-08T12:05:34;6.55;;;3.13;;
68858;SDS011;55864;49.238;8.092;2023-07-08T12:09:44;9.40;;;3.10;;
68858;SDS011;55864;49.238;8.092;2023-07-08T12:11:47;9.18;;;3.20;;
68858;SDS011;55864;49.238;8.092;2023-07-08T12:13:51;7.20;;;3.28;;
68858;SDS011;55864;49.238;8.092;2023-07-08T12:15:53;8.75;;;3.65;;
68858;SDS011;55864;49.238;8.092;2023-07-08T12:17:55;7.40;;;3.08;;
68858;SDS011;55864;49.238;8.092;2023-07-08T12:19:59;9.05;;;3.53;;
68858;SDS011;55864;49.238;8.092;2023-07-08T12:22:03;7.20;;;3.05;;
68858;SDS011;55864;49.238;8.092;2023-07-08T12:24:05;8.68;;;3.40;;
68858;SDS011;55864;49.238;8.092;2023-07-08T12:26:08;7.90;;;3.23;;